sensor_id;sensor_type;location;lat;lon;timestamp;P1;durP1;ratioP1;P2;durP2;ratioP2
56141;SDS011;42018;48.588;10.836;2022-07-19T00:02:06;5.75;;;1.80;;
56141;SDS011;42018;48.588;10.836;2022-07-19T00:04:52;3.42;;;1.60;;
56141;SDS011;42018;48.588;10.836;2022-07-19T00:07:37;3.88;;;1.60;;
56141;SDS011;42018;48.588;10.836;2022-07-19T00:10:23;3.60;;;1.50;;
56141;SDS011;42018;48.588;10.836;2022-07-19T00:13:09;4.35;;;1.60;;
56141;SDS011;42018;48.588;10.836;2022-07-19T00:15:54;4.80;;;1.95;;
56141;SDS011;42018;48.588;10.836;2022-07-19T00:18:39;4.97;;;1.65;;
56141;SDS011;42018;48.588;10.836;2022-07-19T00:21:25;3.45;;;1.42;;
56141;SDS011;42018;48.588;10.836;2022-07-19T00:24:10;4.35;;;1.60;;
56141;SDS011;42018;48.588;10.836;2022-07-19T00:26:56;4.60;;;1.80;;
56141;SDS011;42018;48.588;10.836;2022-07-19T00:29:41;4.22;;;1.73;;
56141;SDS011;42018;48.588;10.836;2022-07-19T00:32:26;5.68;;;1.60;;
56141;SDS011;42018;48.588;10.836;2022-07-19T00:35:12;2.72;;;1.35;;
56141;SDS011;42018;48.588;10.836;2022-07-19T00:38:02;3.45;;;1.50;;
56141;SDS011;42018;48.588;10.836;2022-07-19T00:40:51;3.35;;;1.40;;
56141;SDS011;42018;48.588;10.836;2022-07-19T00:43:39;3.55;;;1.60;;
56141;SDS011;42018;48.588;10.836;2022-07-19T00:46:25;5.07;;;1.70;;
56141;SDS011;42018;48.588;10.836;2022-07-19T00:49:11;4.03;;;1.50;;
56141;SDS011;42018;48.588;10.836;2022-07-19T00:51:56;2.85;;;1.42;;
56141;SDS011;42018;48.588;10.836;2022-07-19T00:54:44;3.00;;;1.33;;
56141;SDS011;42018;48.588;10.836;2022-07-19T00:57:30;6.13;;;1.40;;
56141;SDS011;42018;48.588;10.836;2022-07-19T01:00:19;4.68;;;1.60;;
56141;SDS011;42018;48.588;10.836;2022-07-19T01:03:04;3.08;;;1.45;;
56141;SDS011;42018;48.588;10.836;2022-07-19T01:05:53;5.32;;;1.40;;
56141;SDS011;42018;48.588;10.836;2022-07-19T01:08:38;3.33;;;1.40;;
56141;SDS011;42018;48.588;10.836;2022-07-19T01:11:24;3.40;;;1.40;;
56141;SDS011;42018;48.588;10.836;2022-07-19T01:14:09;4.38;;;1.40;;
56141;SDS011;42018;48.588;10.836;2022-07-19T01:16:55;4.45;;;1.77;;
56141;SDS011;42018;48.588;10.836;2022-07-19T01:19:44;2.55;;;1.42;;
56141;SDS011;42018;48.588;10.836;2022-07-19T01:22:29;3.25;;;1.50;;
56141;SDS011;42018;48.588;10.836;2022-07-19T01:25:15;2.97;;;1.60;;
56141;SDS011;42018;48.588;10.836;2022-07-19T01:28:02;3.80;;;1.50;;
56141;SDS011;42018;48.588;10.836;2022-07-19T01:30:49;5.95;;;1.73;;
56141;SDS011;42018;48.588;10.836;2022-07-19T01:33:39;4.15;;;1.75;;
56141;SDS011;42018;48.588;10.836;2022-07-19T01:36:29;4.80;;;1.50;;
56141;SDS011;42018;48.588;10.836;2022-07-19T01:39:15;3.88;;;1.60;;
56141;SDS011;42018;48.588;10.836;2022-07-19T01:42:00;3.90;;;1.58;;
56141;SDS011;42018;48.588;10.836;2022-07-19T01:44:47;2.85;;;1.40;;
56141;SDS011;42018;48.588;10.836;2022-07-19T01:47:32;4.15;;;1.60;;
56141;SDS011;42018;48.588;10.836;2022-07-19T01:50:18;3.25;;;1.50;;
56141;SDS011;42018;48.588;10.836;2022-07-19T01:53:03;3.00;;;1.67;;
56141;SDS011;42018;48.588;10.836;2022-07-19T01:55:48;3.72;;;1.65;;
56141;SDS011;42018;48.588;10.836;2022-07-19T01:58:34;5.07;;;1.70;;
56141;SDS011;42018;48.588;10.836;2022-07-19T02:01:19;4.90;;;1.90;;
56141;SDS011;42018;48.588;10.836;2022-07-19T02:04:05;3.80;;;1.70;;
56141;SDS011;42018;48.588;10.836;2022-07-19T02:06:50;3.58;;;1.73;;
56141;SDS011;42018;48.588;10.836;2022-07-19T02:09:35;3.85;;;1.70;;
56141;SDS011;42018;48.588;10.836;2022-07-19T02:12:21;4.50;;;2.00;;
56141;SDS011;42018;48.588;10.836;2022-07-19T02:15:06;3.33;;;1.67;;
56141;SDS011;42018;48.588;10.836;2022-07-19T02:17:52;4.55;;;1.65;;
56141;SDS011;42018;48.588;10.836;2022-07-19T02:20:38;3.95;;;1.70;;
56141;SDS011;42018;48.588;10.836;2022-07-19T02:23:23;4.20;;;1.60;;
56141;SDS011;42018;48.588;10.836;2022-07-19T02:26:09;3.45;;;1.80;;
56141;SDS011;42018;48.588;10.836;2022-07-19T02:28:54;4.40;;;1.65;;
56141;SDS011;42018;48.588;10.836;2022-07-19T02:31:39;3.55;;;1.50;;
56141;SDS011;42018;48.588;10.836;2022-07-19T02:34:25;4.05;;;1.50;;
56141;SDS011;42018;48.588;10.836;2022-07-19T02:37:10;3.08;;;1.50;;
56141;SDS011;42018;48.588;10.836;2022-07-19T02:39:56;3.58;;;1.65;;
56141;SDS011;42018;48.588;10.836;2022-07-19T02:42:41;3.05;;;1.55;;
56141;SDS011;42018;48.588;10.836;2022-07-19T02:45:26;2.97;;;1.30;;
56141;SDS011;42018;48.588;10.836;2022-07-19T02:48:12;3.03;;;1.58;;
56141;SDS011;42018;48.588;10.836;2022-07-19T02:50:57;3.72;;;1.65;;
56141;SDS011;42018;48.588;10.836;2022-07-19T02:53:43;3.85;;;1.77;;
56141;SDS011;42018;48.588;10.836;2022-07-19T02:56:28;3.10;;;1.60;;
56141;SDS011;42018;48.588;10.836;2022-07-19T02:59:13;4.18;;;1.80;;
56141;SDS011;42018;48.588;10.836;2022-07-19T03:01:59;4.72;;;1.80;;
56141;SDS011;42018;48.588;10.836;2022-07-19T03:04:44;4.15;;;1.80;;
56141;SDS011;42018;48.588;10.836;2022-07-19T03:07:30;4.20;;;1.60;;
56141;SDS011;42018;48.588;10.836;2022-07-19T03:10:15;3.60;;;1.70;;
56141;SDS011;42018;48.588;10.836;2022-07-19T03:13:01;3.97;;;1.77;;
56141;SDS011;42018;48.588;10.836;2022-07-19T03:15:46;3.15;;;1.60;;
56141;SDS011;42018;48.588;10.836;2022-07-19T03:18:32;3.60;;;1.60;;
56141;SDS011;42018;48.588;10.836;2022-07-19T03:21:18;3.75;;;1.48;;
56141;SDS011;42018;48.588;10.836;2022-07-19T03:24:03;3.22;;;1.50;;
56141;SDS011;42018;48.588;10.836;2022-07-19T03:26:49;4.35;;;1.60;;
56141;SDS011;42018;48.588;10.836;2022-07-19T03:29:34;3.03;;;1.48;;
56141;SDS011;42018;48.588;10.836;2022-07-19T03:32:19;3.30;;;1.48;;
56141;SDS011;42018;48.588;10.836;2022-07-19T03:35:05;3.80;;;1.50;;
56141;SDS011;42018;48.588;10.836;2022-07-19T03:37:51;3.08;;;1.55;;
56141;SDS011;42018;48.588;10.836;2022-07-19T03:40:36;3.33;;;1.70;;
56141;SDS011;42018;48.588;10.836;2022-07-19T03:43:22;2.60;;;1.40;;
56141;SDS011;42018;48.588;10.836;2022-07-19T03:46:08;2.80;;;1.40;;
56141;SDS011;42018;48.588;10.836;2022-07-19T03:48:53;2.85;;;1.50;;
56141;SDS011;42018;48.588;10.836;2022-07-19T03:51:39;2.45;;;1.40;;
56141;SDS011;42018;48.588;10.836;2022-07-19T03:54:25;4.47;;;1.67;;
56141;SDS011;42018;48.588;10.836;2022-07-19T03:57:10;3.45;;;1.80;;
56141;SDS011;42018;48.588;10.836;2022-07-19T03:59:55;3.10;;;1.50;;
56141;SDS011;42018;48.588;10.836;2022-07-19T04:02:41;3.28;;;1.58;;
56141;SDS011;42018;48.588;10.836;2022-07-19T04:05:26;3.55;;;1.70;;
56141;SDS011;42018;48.588;10.836;2022-07-19T04:08:12;4.07;;;1.70;;
56141;SDS011;42018;48.588;10.836;2022-07-19T04:10:57;4.25;;;2.10;;
56141;SDS011;42018;48.588;10.836;2022-07-19T04:13:43;3.95;;;1.77;;
56141;SDS011;42018;48.588;10.836;2022-07-19T04:16:28;5.63;;;1.70;;
56141;SDS011;42018;48.588;10.836;2022-07-19T04:19:14;4.90;;;1.75;;
56141;SDS011;42018;48.588;10.836;2022-07-19T04:21:59;4.55;;;1.77;;
56141;SDS011;42018;48.588;10.836;2022-07-19T04:24:44;4.07;;;1.67;;
56141;SDS011;42018;48.588;10.836;2022-07-19T04:27:30;3.80;;;1.70;;
56141;SDS011;42018;48.588;10.836;2022-07-19T04:30:15;3.28;;;1.60;;
56141;SDS011;42018;48.588;10.836;2022-07-19T04:33:01;4.75;;;1.50;;
56141;SDS011;42018;48.588;10.836;2022-07-19T04:35:46;4.45;;;1.80;;
56141;SDS011;42018;48.588;10.836;2022-07-19T04:38:32;2.97;;;1.63;;
56141;SDS011;42018;48.588;10.836;2022-07-19T04:41:17;4.18;;;1.60;;
56141;SDS011;42018;48.588;10.836;2022-07-19T04:44:02;3.58;;;1.55;;
56141;SDS011;42018;48.588;10.836;2022-07-19T04:46:48;3.40;;;1.48;;
56141;SDS011;42018;48.588;10.836;2022-07-19T04:49:33;3.78;;;1.40;;
56141;SDS011;42018;48.588;10.836;2022-07-19T04:52:19;4.10;;;1.60;;
56141;SDS011;42018;48.588;10.836;2022-07-19T04:55:04;3.90;;;1.60;;
56141;SDS011;42018;48.588;10.836;2022-07-19T04:57:50;6.15;;;1.60;;
56141;SDS011;42018;48.588;10.836;2022-07-19T05:00:35;5.32;;;1.70;;
56141;SDS011;42018;48.588;10.836;2022-07-19T05:03:21;4.68;;;1.90;;
56141;SDS011;42018;48.588;10.836;2022-07-19T05:06:06;4.00;;;1.60;;
56141;SDS011;42018;48.588;10.836;2022-07-19T05:08:52;3.17;;;1.50;;
56141;SDS011;42018;48.588;10.836;2022-07-19T05:11:37;2.78;;;1.33;;
56141;SDS011;42018;48.588;10.836;2022-07-19T05:14:23;2.75;;;1.35;;
56141;SDS011;42018;48.588;10.836;2022-07-19T05:17:08;3.50;;;1.70;;
56141;SDS011;42018;48.588;10.836;2022-07-19T05:19:54;4.20;;;1.63;;
56141;SDS011;42018;48.588;10.836;2022-07-19T05:22:39;4.53;;;1.67;;
56141;SDS011;42018;48.588;10.836;2022-07-19T05:25:24;3.45;;;1.50;;
56141;SDS011;42018;48.588;10.836;2022-07-19T05:28:10;3.72;;;1.50;;
56141;SDS011;42018;48.588;10.836;2022-07-19T05:30:55;3.22;;;1.45;;
56141;SDS011;42018;48.588;10.836;2022-07-19T05:33:41;4.32;;;1.50;;
56141;SDS011;42018;48.588;10.836;2022-07-19T05:36:27;4.07;;;1.60;;
56141;SDS011;42018;48.588;10.836;2022-07-19T05:39:12;4.53;;;1.70;;
56141;SDS011;42018;48.588;10.836;2022-07-19T05:41:58;4.57;;;2.00;;
56141;SDS011;42018;48.588;10.836;2022-07-19T05:44:43;4.63;;;1.73;;
56141;SDS011;42018;48.588;10.836;2022-07-19T05:47:28;5.05;;;1.70;;
56141;SDS011;42018;48.588;10.836;2022-07-19T05:50:14;2.88;;;1.58;;
56141;SDS011;42018;48.588;10.836;2022-07-19T05:52:59;6.75;;;1.60;;
56141;SDS011;42018;48.588;10.836;2022-07-19T05:55:45;4.53;;;1.60;;
56141;SDS011;42018;48.588;10.836;2022-07-19T05:58:31;4.25;;;1.60;;
56141;SDS011;42018;48.588;10.836;2022-07-19T06:01:16;5.93;;;1.95;;
56141;SDS011;42018;48.588;10.836;2022-07-19T06:04:04;3.72;;;1.60;;
56141;SDS011;42018;48.588;10.836;2022-07-19T06:06:50;5.43;;;1.65;;
56141;SDS011;42018;48.588;10.836;2022-07-19T06:09:35;3.85;;;1.80;;
56141;SDS011;42018;48.588;10.836;2022-07-19T06:12:21;3.38;;;1.33;;
56141;SDS011;42018;48.588;10.836;2022-07-19T06:15:06;4.00;;;1.50;;
56141;SDS011;42018;48.588;10.836;2022-07-19T06:17:52;4.18;;;1.35;;
56141;SDS011;42018;48.588;10.836;2022-07-19T06:20:38;4.03;;;1.40;;
56141;SDS011;42018;48.588;10.836;2022-07-19T06:23:23;7.72;;;2.00;;
56141;SDS011;42018;48.588;10.836;2022-07-19T06:26:09;3.05;;;1.30;;
56141;SDS011;42018;48.588;10.836;2022-07-19T06:28:55;2.78;;;1.20;;
56141;SDS011;42018;48.588;10.836;2022-07-19T06:31:41;3.05;;;1.30;;
56141;SDS011;42018;48.588;10.836;2022-07-19T06:34:26;3.10;;;1.38;;
56141;SDS011;42018;48.588;10.836;2022-07-19T06:37:12;2.08;;;1.20;;
56141;SDS011;42018;48.588;10.836;2022-07-19T06:39:57;2.15;;;1.10;;
56141;SDS011;42018;48.588;10.836;2022-07-19T06:42:42;3.28;;;1.40;;
56141;SDS011;42018;48.588;10.836;2022-07-19T06:45:28;3.80;;;1.30;;
56141;SDS011;42018;48.588;10.836;2022-07-19T06:48:13;3.45;;;1.20;;
56141;SDS011;42018;48.588;10.836;2022-07-19T06:50:59;3.63;;;1.30;;
56141;SDS011;42018;48.588;10.836;2022-07-19T06:53:45;2.65;;;1.08;;
56141;SDS011;42018;48.588;10.836;2022-07-19T06:56:30;5.40;;;1.17;;
56141;SDS011;42018;48.588;10.836;2022-07-19T06:59:15;2.88;;;1.17;;
56141;SDS011;42018;48.588;10.836;2022-07-19T07:02:01;2.72;;;1.20;;
56141;SDS011;42018;48.588;10.836;2022-07-19T07:04:47;2.67;;;1.10;;
56141;SDS011;42018;48.588;10.836;2022-07-19T07:07:32;2.88;;;1.17;;
56141;SDS011;42018;48.588;10.836;2022-07-19T07:10:18;2.80;;;1.20;;
56141;SDS011;42018;48.588;10.836;2022-07-19T07:13:03;2.13;;;1.10;;
56141;SDS011;42018;48.588;10.836;2022-07-19T07:15:49;3.40;;;1.20;;
56141;SDS011;42018;48.588;10.836;2022-07-19T07:18:34;2.53;;;1.10;;
56141;SDS011;42018;48.588;10.836;2022-07-19T07:21:19;3.28;;;1.25;;
56141;SDS011;42018;48.588;10.836;2022-07-19T07:24:05;2.55;;;1.10;;
56141;SDS011;42018;48.588;10.836;2022-07-19T07:26:50;2.42;;;1.13;;
56141;SDS011;42018;48.588;10.836;2022-07-19T07:29:36;2.78;;;1.10;;
56141;SDS011;42018;48.588;10.836;2022-07-19T07:32:21;3.05;;;1.10;;
56141;SDS011;42018;48.588;10.836;2022-07-19T07:35:07;3.28;;;1.27;;
56141;SDS011;42018;48.588;10.836;2022-07-19T07:37:53;2.35;;;1.05;;
56141;SDS011;42018;48.588;10.836;2022-07-19T07:40:38;2.95;;;1.20;;
56141;SDS011;42018;48.588;10.836;2022-07-19T07:43:23;1.95;;;1.10;;
56141;SDS011;42018;48.588;10.836;2022-07-19T07:46:09;2.53;;;1.00;;
56141;SDS011;42018;48.588;10.836;2022-07-19T07:48:54;4.53;;;1.00;;
56141;SDS011;42018;48.588;10.836;2022-07-19T07:51:40;1.80;;;1.00;;
56141;SDS011;42018;48.588;10.836;2022-07-19T07:54:25;2.78;;;1.20;;
56141;SDS011;42018;48.588;10.836;2022-07-19T07:57:11;2.03;;;0.98;;
56141;SDS011;42018;48.588;10.836;2022-07-19T07:59:56;1.73;;;1.00;;
56141;SDS011;42018;48.588;10.836;2022-07-19T08:02:42;1.67;;;1.00;;
56141;SDS011;42018;48.588;10.836;2022-07-19T08:05:29;3.20;;;1.00;;
56141;SDS011;42018;48.588;10.836;2022-07-19T08:08:16;1.20;;;0.80;;
56141;SDS011;42018;48.588;10.836;2022-07-19T08:11:02;2.55;;;1.10;;
56141;SDS011;42018;48.588;10.836;2022-07-19T08:13:48;2.22;;;0.90;;
56141;SDS011;42018;48.588;10.836;2022-07-19T08:16:34;2.45;;;0.90;;
56141;SDS011;42018;48.588;10.836;2022-07-19T08:19:19;3.25;;;1.10;;
56141;SDS011;42018;48.588;10.836;2022-07-19T08:22:04;1.90;;;1.00;;
56141;SDS011;42018;48.588;10.836;2022-07-19T08:24:50;1.48;;;0.90;;
56141;SDS011;42018;48.588;10.836;2022-07-19T08:27:35;3.30;;;0.98;;
56141;SDS011;42018;48.588;10.836;2022-07-19T08:30:21;4.13;;;1.10;;
56141;SDS011;42018;48.588;10.836;2022-07-19T08:33:06;4.03;;;1.17;;
56141;SDS011;42018;48.588;10.836;2022-07-19T08:35:53;2.25;;;1.05;;
56141;SDS011;42018;48.588;10.836;2022-07-19T08:38:39;2.63;;;1.08;;
56141;SDS011;42018;48.588;10.836;2022-07-19T08:41:25;2.42;;;1.00;;
56141;SDS011;42018;48.588;10.836;2022-07-19T08:44:11;3.22;;;0.90;;
56141;SDS011;42018;48.588;10.836;2022-07-19T08:46:57;3.10;;;1.20;;
56141;SDS011;42018;48.588;10.836;2022-07-19T08:49:44;2.10;;;0.95;;
56141;SDS011;42018;48.588;10.836;2022-07-19T08:52:31;2.60;;;1.10;;
56141;SDS011;42018;48.588;10.836;2022-07-19T08:55:17;3.10;;;1.30;;
56141;SDS011;42018;48.588;10.836;2022-07-19T08:58:03;6.22;;;1.42;;
56141;SDS011;42018;48.588;10.836;2022-07-19T09:00:49;3.33;;;1.10;;
56141;SDS011;42018;48.588;10.836;2022-07-19T09:03:35;3.70;;;1.00;;
56141;SDS011;42018;48.588;10.836;2022-07-19T09:06:20;6.03;;;1.30;;
56141;SDS011;42018;48.588;10.836;2022-07-19T09:09:06;7.80;;;1.60;;
56141;SDS011;42018;48.588;10.836;2022-07-19T09:11:52;4.72;;;1.10;;
56141;SDS011;42018;48.588;10.836;2022-07-19T09:14:38;2.88;;;1.10;;
56141;SDS011;42018;48.588;10.836;2022-07-19T09:17:27;2.70;;;1.02;;
56141;SDS011;42018;48.588;10.836;2022-07-19T09:20:25;3.90;;;1.00;;
56141;SDS011;42018;48.588;10.836;2022-07-19T09:23:12;5.65;;;1.30;;
56141;SDS011;42018;48.588;10.836;2022-07-19T09:26:01;3.65;;;1.20;;
56141;SDS011;42018;48.588;10.836;2022-07-19T09:28:48;5.35;;;1.20;;
56141;SDS011;42018;48.588;10.836;2022-07-19T09:31:34;5.38;;;1.17;;
56141;SDS011;42018;48.588;10.836;2022-07-19T09:34:29;3.75;;;1.00;;
56141;SDS011;42018;48.588;10.836;2022-07-19T09:37:20;3.92;;;0.95;;
56141;SDS011;42018;48.588;10.836;2022-07-19T09:40:07;2.17;;;0.90;;
56141;SDS011;42018;48.588;10.836;2022-07-19T09:42:53;6.13;;;1.10;;
56141;SDS011;42018;48.588;10.836;2022-07-19T09:45:39;5.65;;;1.00;;
56141;SDS011;42018;48.588;10.836;2022-07-19T09:48:28;3.13;;;0.93;;
56141;SDS011;42018;48.588;10.836;2022-07-19T09:51:27;4.05;;;1.10;;
56141;SDS011;42018;48.588;10.836;2022-07-19T09:54:16;2.35;;;0.90;;
56141;SDS011;42018;48.588;10.836;2022-07-19T09:57:03;2.85;;;1.02;;
56141;SDS011;42018;48.588;10.836;2022-07-19T09:59:49;1.65;;;0.95;;
56141;SDS011;42018;48.588;10.836;2022-07-19T10:02:40;5.28;;;1.20;;
56141;SDS011;42018;48.588;10.836;2022-07-19T10:05:27;1.73;;;0.90;;
56141;SDS011;42018;48.588;10.836;2022-07-19T10:08:14;2.72;;;1.00;;
56141;SDS011;42018;48.588;10.836;2022-07-19T10:10:59;1.75;;;0.90;;
56141;SDS011;42018;48.588;10.836;2022-07-19T10:13:44;2.83;;;1.15;;
56141;SDS011;42018;48.588;10.836;2022-07-19T10:22:26;2.00;;;1.00;;
56141;SDS011;42018;48.588;10.836;2022-07-19T10:28:02;2.55;;;0.98;;
56141;SDS011;42018;48.588;10.836;2022-07-19T10:30:47;1.90;;;0.82;;
56141;SDS011;42018;48.588;10.836;2022-07-19T10:33:34;2.45;;;1.00;;
56141;SDS011;42018;48.588;10.836;2022-07-19T10:36:32;3.83;;;1.00;;
56141;SDS011;42018;48.588;10.836;2022-07-19T10:42:21;4.00;;;1.10;;
56141;SDS011;42018;48.588;10.836;2022-07-19T10:45:11;6.45;;;1.50;;
56141;SDS011;42018;48.588;10.836;2022-07-19T10:50:50;2.72;;;1.10;;
56141;SDS011;42018;48.588;10.836;2022-07-19T10:56:41;2.10;;;1.15;;
56141;SDS011;42018;48.588;10.836;2022-07-19T10:59:40;3.53;;;0.88;;
56141;SDS011;42018;48.588;10.836;2022-07-19T11:02:27;3.05;;;1.08;;
56141;SDS011;42018;48.588;10.836;2022-07-19T11:08:07;2.83;;;1.00;;
56141;SDS011;42018;48.588;10.836;2022-07-19T11:10:52;5.93;;;1.60;;
56141;SDS011;42018;48.588;10.836;2022-07-19T11:13:48;3.15;;;1.10;;
56141;SDS011;42018;48.588;10.836;2022-07-19T11:16:40;4.00;;;0.98;;
56141;SDS011;42018;48.588;10.836;2022-07-19T11:19:26;3.35;;;1.23;;
56141;SDS011;42018;48.588;10.836;2022-07-19T11:22:12;3.72;;;0.90;;
56141;SDS011;42018;48.588;10.836;2022-07-19T11:24:57;3.33;;;1.00;;
56141;SDS011;42018;48.588;10.836;2022-07-19T11:27:43;2.63;;;0.77;;
56141;SDS011;42018;48.588;10.836;2022-07-19T11:30:31;2.45;;;0.90;;
56141;SDS011;42018;48.588;10.836;2022-07-19T11:33:18;4.45;;;0.95;;
56141;SDS011;42018;48.588;10.836;2022-07-19T11:36:05;3.13;;;0.80;;
56141;SDS011;42018;48.588;10.836;2022-07-19T11:38:52;4.10;;;1.00;;
56141;SDS011;42018;48.588;10.836;2022-07-19T11:41:39;4.43;;;0.93;;
56141;SDS011;42018;48.588;10.836;2022-07-19T11:44:29;3.60;;;0.73;;
56141;SDS011;42018;48.588;10.836;2022-07-19T11:47:14;2.55;;;0.98;;
56141;SDS011;42018;48.588;10.836;2022-07-19T11:50:03;1.75;;;0.90;;
56141;SDS011;42018;48.588;10.836;2022-07-19T11:52:56;4.25;;;0.95;;
56141;SDS011;42018;48.588;10.836;2022-07-19T11:55:43;2.38;;;0.85;;
56141;SDS011;42018;48.588;10.836;2022-07-19T11:58:29;2.35;;;0.90;;
56141;SDS011;42018;48.588;10.836;2022-07-19T12:01:15;4.07;;;0.93;;
56141;SDS011;42018;48.588;10.836;2022-07-19T12:04:09;2.60;;;1.02;;
56141;SDS011;42018;48.588;10.836;2022-07-19T12:06:57;2.33;;;0.95;;
56141;SDS011;42018;48.588;10.836;2022-07-19T12:09:44;3.15;;;1.13;;
56141;SDS011;42018;48.588;10.836;2022-07-19T12:12:30;2.50;;;0.90;;
56141;SDS011;42018;48.588;10.836;2022-07-19T12:15:26;2.85;;;0.80;;
56141;SDS011;42018;48.588;10.836;2022-07-19T12:27:06;3.03;;;0.98;;
56141;SDS011;42018;48.588;10.836;2022-07-19T12:29:54;2.95;;;1.00;;
56141;SDS011;42018;48.588;10.836;2022-07-19T12:32:40;2.30;;;0.80;;
56141;SDS011;42018;48.588;10.836;2022-07-19T12:35:28;3.97;;;1.08;;
56141;SDS011;42018;48.588;10.836;2022-07-19T12:38:14;3.80;;;0.90;;
56141;SDS011;42018;48.588;10.836;2022-07-19T12:41:07;1.95;;;0.70;;
56141;SDS011;42018;48.588;10.836;2022-07-19T12:43:53;3.30;;;0.98;;
56141;SDS011;42018;48.588;10.836;2022-07-19T12:46:38;1.63;;;0.80;;
56141;SDS011;42018;48.588;10.836;2022-07-19T12:49:24;1.35;;;0.80;;
56141;SDS011;42018;48.588;10.836;2022-07-19T12:52:10;4.13;;;0.90;;
56141;SDS011;42018;48.588;10.836;2022-07-19T12:54:55;4.22;;;0.80;;
56141;SDS011;42018;48.588;10.836;2022-07-19T12:57:41;2.60;;;0.80;;
56141;SDS011;42018;48.588;10.836;2022-07-19T13:00:27;3.17;;;0.75;;
56141;SDS011;42018;48.588;10.836;2022-07-19T13:03:13;1.85;;;0.82;;
56141;SDS011;42018;48.588;10.836;2022-07-19T13:05:59;6.32;;;1.02;;
56141;SDS011;42018;48.588;10.836;2022-07-19T13:08:44;6.78;;;1.10;;
56141;SDS011;42018;48.588;10.836;2022-07-19T13:11:30;2.28;;;1.00;;
56141;SDS011;42018;48.588;10.836;2022-07-19T13:14:15;3.83;;;0.90;;
56141;SDS011;42018;48.588;10.836;2022-07-19T13:17:01;2.13;;;1.10;;
56141;SDS011;42018;48.588;10.836;2022-07-19T13:19:47;1.90;;;1.00;;
56141;SDS011;42018;48.588;10.836;2022-07-19T13:22:33;3.33;;;0.80;;
56141;SDS011;42018;48.588;10.836;2022-07-19T13:25:18;3.08;;;1.13;;
56141;SDS011;42018;48.588;10.836;2022-07-19T13:28:04;4.03;;;0.98;;
56141;SDS011;42018;48.588;10.836;2022-07-19T13:30:50;4.68;;;1.08;;
56141;SDS011;42018;48.588;10.836;2022-07-19T13:33:36;2.88;;;0.90;;
56141;SDS011;42018;48.588;10.836;2022-07-19T13:36:21;4.82;;;1.00;;
56141;SDS011;42018;48.588;10.836;2022-07-19T13:39:07;3.38;;;1.00;;
56141;SDS011;42018;48.588;10.836;2022-07-19T13:41:52;3.13;;;1.05;;
56141;SDS011;42018;48.588;10.836;2022-07-19T13:44:38;5.45;;;1.00;;
56141;SDS011;42018;48.588;10.836;2022-07-19T13:47:23;2.42;;;0.98;;
56141;SDS011;42018;48.588;10.836;2022-07-19T13:50:08;2.85;;;1.20;;
56141;SDS011;42018;48.588;10.836;2022-07-19T13:52:54;2.95;;;0.93;;
56141;SDS011;42018;48.588;10.836;2022-07-19T13:55:40;2.67;;;1.00;;
56141;SDS011;42018;48.588;10.836;2022-07-19T13:58:25;2.60;;;1.00;;
56141;SDS011;42018;48.588;10.836;2022-07-19T14:01:11;8.93;;;1.50;;
56141;SDS011;42018;48.588;10.836;2022-07-19T14:03:57;3.80;;;1.00;;
56141;SDS011;42018;48.588;10.836;2022-07-19T14:06:42;4.80;;;1.30;;
56141;SDS011;42018;48.588;10.836;2022-07-19T14:09:27;3.88;;;1.42;;
56141;SDS011;42018;48.588;10.836;2022-07-19T14:12:13;2.90;;;1.10;;
56141;SDS011;42018;48.588;10.836;2022-07-19T14:14:58;3.78;;;1.20;;
56141;SDS011;42018;48.588;10.836;2022-07-19T14:17:44;5.53;;;1.30;;
56141;SDS011;42018;48.588;10.836;2022-07-19T14:20:29;3.00;;;1.10;;
56141;SDS011;42018;48.588;10.836;2022-07-19T14:23:15;2.00;;;0.90;;
56141;SDS011;42018;48.588;10.836;2022-07-19T14:26:00;2.83;;;1.10;;
56141;SDS011;42018;48.588;10.836;2022-07-19T14:28:45;2.75;;;1.10;;
56141;SDS011;42018;48.588;10.836;2022-07-19T14:31:31;3.28;;;1.00;;
56141;SDS011;42018;48.588;10.836;2022-07-19T14:34:16;4.18;;;1.10;;
56141;SDS011;42018;48.588;10.836;2022-07-19T14:37:02;3.17;;;1.20;;
56141;SDS011;42018;48.588;10.836;2022-07-19T14:39:47;2.40;;;1.10;;
56141;SDS011;42018;48.588;10.836;2022-07-19T14:42:32;2.90;;;1.10;;
56141;SDS011;42018;48.588;10.836;2022-07-19T14:45:18;2.42;;;0.90;;
56141;SDS011;42018;48.588;10.836;2022-07-19T14:48:03;3.10;;;1.15;;
56141;SDS011;42018;48.588;10.836;2022-07-19T14:50:50;3.40;;;1.20;;
56141;SDS011;42018;48.588;10.836;2022-07-19T14:53:35;5.43;;;1.20;;
56141;SDS011;42018;48.588;10.836;2022-07-19T14:56:21;6.50;;;1.20;;
56141;SDS011;42018;48.588;10.836;2022-07-19T14:59:06;3.65;;;1.25;;
56141;SDS011;42018;48.588;10.836;2022-07-19T15:01:52;2.38;;;1.10;;
56141;SDS011;42018;48.588;10.836;2022-07-19T15:04:37;3.95;;;1.10;;
56141;SDS011;42018;48.588;10.836;2022-07-19T15:07:23;7.28;;;1.42;;
56141;SDS011;42018;48.588;10.836;2022-07-19T15:10:08;4.68;;;1.05;;
56141;SDS011;42018;48.588;10.836;2022-07-19T15:12:53;2.17;;;1.00;;
56141;SDS011;42018;48.588;10.836;2022-07-19T15:15:39;3.58;;;1.00;;
56141;SDS011;42018;48.588;10.836;2022-07-19T15:18:24;3.97;;;1.10;;
56141;SDS011;42018;48.588;10.836;2022-07-19T15:21:10;3.72;;;1.20;;
56141;SDS011;42018;48.588;10.836;2022-07-19T15:23:55;2.22;;;1.10;;
56141;SDS011;42018;48.588;10.836;2022-07-19T15:26:41;7.03;;;1.27;;
56141;SDS011;42018;48.588;10.836;2022-07-19T15:29:26;2.65;;;1.08;;
56141;SDS011;42018;48.588;10.836;2022-07-19T15:32:11;3.88;;;1.20;;
56141;SDS011;42018;48.588;10.836;2022-07-19T15:34:57;3.13;;;1.00;;
56141;SDS011;42018;48.588;10.836;2022-07-19T15:37:42;2.53;;;1.05;;
56141;SDS011;42018;48.588;10.836;2022-07-19T15:40:28;4.00;;;1.20;;
56141;SDS011;42018;48.588;10.836;2022-07-19T15:43:14;3.10;;;1.15;;
56141;SDS011;42018;48.588;10.836;2022-07-19T15:46:01;3.78;;;1.30;;
56141;SDS011;42018;48.588;10.836;2022-07-19T15:48:46;3.00;;;1.20;;
56141;SDS011;42018;48.588;10.836;2022-07-19T15:51:32;4.32;;;1.20;;
56141;SDS011;42018;48.588;10.836;2022-07-19T15:54:18;3.42;;;1.05;;
56141;SDS011;42018;48.588;10.836;2022-07-19T15:57:03;3.10;;;1.23;;
56141;SDS011;42018;48.588;10.836;2022-07-19T15:59:48;5.40;;;1.30;;
56141;SDS011;42018;48.588;10.836;2022-07-19T16:02:35;1.30;;;0.93;;
56141;SDS011;42018;48.588;10.836;2022-07-19T16:05:21;2.45;;;1.05;;
56141;SDS011;42018;48.588;10.836;2022-07-19T16:08:06;4.85;;;1.40;;
56141;SDS011;42018;48.588;10.836;2022-07-19T16:10:52;3.38;;;1.10;;
56141;SDS011;42018;48.588;10.836;2022-07-19T16:13:37;3.15;;;1.17;;
56141;SDS011;42018;48.588;10.836;2022-07-19T16:16:23;2.85;;;1.20;;
56141;SDS011;42018;48.588;10.836;2022-07-19T16:19:08;2.42;;;1.20;;
56141;SDS011;42018;48.588;10.836;2022-07-19T16:21:54;4.57;;;1.30;;
56141;SDS011;42018;48.588;10.836;2022-07-19T16:24:39;2.85;;;1.10;;
56141;SDS011;42018;48.588;10.836;2022-07-19T16:27:24;6.13;;;1.40;;
56141;SDS011;42018;48.588;10.836;2022-07-19T16:30:10;3.17;;;1.20;;
56141;SDS011;42018;48.588;10.836;2022-07-19T16:32:56;4.13;;;1.30;;
56141;SDS011;42018;48.588;10.836;2022-07-19T16:35:41;5.32;;;1.30;;
56141;SDS011;42018;48.588;10.836;2022-07-19T16:38:27;3.55;;;1.20;;
56141;SDS011;42018;48.588;10.836;2022-07-19T16:41:12;7.00;;;1.75;;
56141;SDS011;42018;48.588;10.836;2022-07-19T16:43:58;4.07;;;1.30;;
56141;SDS011;42018;48.588;10.836;2022-07-19T16:46:43;4.05;;;1.45;;
56141;SDS011;42018;48.588;10.836;2022-07-19T16:49:28;5.95;;;1.30;;
56141;SDS011;42018;48.588;10.836;2022-07-19T16:52:15;3.40;;;1.42;;
56141;SDS011;42018;48.588;10.836;2022-07-19T16:55:00;5.35;;;1.50;;